Palm Beach, FL

5:17 AM EDT on May 06, 2015 (GMT -0400)
Rybovich Boat Company | | Change Station
CLOSE
Current Station
Personal Weather Station
Location: West Palm Beach, FL
Elevation: 10 ft
Nearby Weather Stations

Elev 10 ft 26.75 °N, 80.05 °W | Updated 29 seconds ago

Rain
Rain
71.3 °F
Feels Like 71.3 °F
N
3.7
Wind Variable Wind from NNW
Gusts 5.0 mph

Today
High -- | Low -- °F
--% Chance of Precip.
Yesterday
High -- | Low -- °F
Precip. -- in
6:38 AM 7:55 PM
Waning Gibbous, 95% visible
Pressure 29.98 in
Visibility 5.0 miles
Clouds Scattered Clouds 1300 ft
Overcast 10000 ft
Dew Point 68 °F
Humidity 89%
Rainfall 0.74 in
Snow Depth Not available.
UV 0 out of 12
Pollen .60 out of 12
Air Quality Not available.
Flu Activity Local Activity
METAR KPBI 060853Z 32006KT 5SM BR SCT013 OVC100 21/20 A2998 RMK AO2 RAE50 SLP150 P0002 60036 T02060200 56021 $

More Conditions Fewer Conditions

Pressure 29.98 in
Visibility 5.0 miles
Clouds Scattered Clouds 1300 ft
Overcast 10000 ft
Dew Point 68 °F
Humidity 89%
Rainfall 0.74 in
Snow Depth Not available.
UV 0 out of 12
Pollen .60 out of 12
Air Quality Not available.
Flu Activity Local Activity
METAR KPBI 060853Z 32006KT 5SM BR SCT013 OVC100 21/20 A2998 RMK AO2 RAE50 SLP150 P0002 60036 T02060200 56021 $

More Conditions Fewer Conditions

10-Day Weather Forecast

Almanac

Astronomy

May. 06, 2015 Rise Set
Actual Time
Civil Twilight
Nautical Twilight
Astronomical Twilight
Moon
Length of Visible Light
Length of Day
Tomorrow will be .
, % of the Moon is Illuminated

Today's Extremes

State Highs State Lows

Community

WunderPhotos

Upload Photos

1,818,858 photos uploaded!

WunderBlogs® & News

Nearby

Air Quality

  Air Quality AQ Index Pollutant
Not available.

Snow Depth

Station Depth Elevation

Earthquake Activity

City Distance Mag. Time & Date
Minimum magnitude displayed is 2.5.

Coastal Water Temperatures

Place Temperature

Stations

Nearby Weather Stations

Station Location Temp. Windchill Dew Point Humidity Wind Precip. Elev Updated Type